createdAt,value
2023-03-05T00:01:18.278Z,18.50
2023-03-05T00:03:46.533Z,19.58
2023-03-05T00:06:13.223Z,19.05
2023-03-05T00:08:40.204Z,20.38
2023-03-05T00:11:09.832Z,22.25
2023-03-05T00:13:37.094Z,20.75
2023-03-05T00:16:05.719Z,18.23
2023-03-05T00:18:32.782Z,19.00
2023-03-05T00:21:02.351Z,19.33
2023-03-05T00:23:29.575Z,19.00
2023-03-05T00:25:57.832Z,21.48
2023-03-05T00:28:25.223Z,20.73
2023-03-05T00:30:53.824Z,19.58
2023-03-05T00:33:22.111Z,18.73
2023-03-05T00:35:49.473Z,18.20
2023-03-05T00:38:16.153Z,18.83
2023-03-05T00:40:42.951Z,20.23
2023-03-05T00:43:09.814Z,19.40
2023-03-05T00:45:36.817Z,20.83
2023-03-05T00:48:03.967Z,19.10
2023-03-05T00:50:30.751Z,19.50
2023-03-05T00:52:57.381Z,20.33
2023-03-05T00:55:23.976Z,20.23
2023-03-05T00:57:50.724Z,19.15
2023-03-05T01:00:17.716Z,20.35
2023-03-05T01:02:44.397Z,19.77
2023-03-05T01:05:13.144Z,20.45
2023-03-05T01:07:39.898Z,19.13
2023-03-05T01:10:07.281Z,18.75
2023-03-05T01:12:33.966Z,18.75
2023-03-05T01:15:00.597Z,18.90
2023-03-05T01:17:27.244Z,19.42
2023-03-05T01:19:53.973Z,18.02
2023-03-05T01:22:20.596Z,18.05
2023-03-05T01:24:47.173Z,17.80
2023-03-05T01:27:14.064Z,18.17
2023-03-05T01:29:40.685Z,18.27
2023-03-05T01:32:07.315Z,18.40
2023-03-05T01:34:34.004Z,17.92
2023-03-05T01:37:00.577Z,18.25
2023-03-05T01:39:27.178Z,18.92
2023-03-05T01:41:53.950Z,16.92
2023-03-05T01:44:23.442Z,18.85
2023-03-05T01:46:50.259Z,17.35
2023-03-05T01:52:19.385Z,18.63
2023-03-05T01:55:04.475Z,17.55
2023-03-05T01:57:36.501Z,19.88
2023-03-05T02:00:08.486Z,19.80
2023-03-05T02:02:35.189Z,16.65
2023-03-05T02:05:04.228Z,18.30
2023-03-05T02:07:31.421Z,19.33
2023-03-05T02:09:58.128Z,16.75
2023-03-05T02:12:24.855Z,17.27
2023-03-05T02:14:58.343Z,17.58
2023-03-05T02:17:27.471Z,17.80
2023-03-05T02:19:55.580Z,17.30
2023-03-05T02:22:23.332Z,17.10
2023-03-05T02:24:50.109Z,18.70
2023-03-05T02:27:17.539Z,18.83
2023-03-05T02:29:45.919Z,18.70
2023-03-05T02:32:13.045Z,18.60
2023-03-05T02:34:39.872Z,18.35
2023-03-05T02:37:09.047Z,17.02
2023-03-05T02:39:35.813Z,16.85
2023-03-05T02:42:02.441Z,17.33
2023-03-05T02:44:29.062Z,17.08
2023-03-05T02:46:55.672Z,16.85
2023-03-05T02:49:22.237Z,17.10
2023-03-05T02:51:48.948Z,17.63
2023-03-05T02:54:15.516Z,14.93
2023-03-05T02:56:43.415Z,16.95
2023-03-05T02:59:10.087Z,15.68
2023-03-05T03:01:36.937Z,16.02
2023-03-05T03:04:03.578Z,16.45
2023-03-05T03:06:30.285Z,16.55
2023-03-05T03:08:57.851Z,18.38
2023-03-05T03:11:24.593Z,16.88
2023-03-05T03:13:51.441Z,17.80
2023-03-05T03:16:18.100Z,19.35
2023-03-05T03:18:47.327Z,17.60
2023-03-05T03:21:18.871Z,16.98
2023-03-05T03:23:45.589Z,14.23
2023-03-05T03:26:12.291Z,19.10
2023-03-05T03:28:38.940Z,17.90
2023-03-05T03:31:05.642Z,18.10
2023-03-05T03:33:32.480Z,18.67
2023-03-05T03:35:59.241Z,17.23
2023-03-05T03:38:25.995Z,19.25
2023-03-05T03:40:52.786Z,18.70
2023-03-05T03:43:19.420Z,18.20
2023-03-05T03:45:46.477Z,18.80
2023-03-05T03:48:13.197Z,17.88
2023-03-05T03:50:41.723Z,18.60
2023-03-05T03:53:08.572Z,19.77
2023-03-05T03:55:35.483Z,17.85
2023-03-05T03:58:02.158Z,17.88
2023-03-05T04:00:28.892Z,19.17
2023-03-05T04:02:55.499Z,21.58
2023-03-05T04:05:22.176Z,19.13
2023-03-05T04:07:48.935Z,17.90
2023-03-05T04:10:15.558Z,18.63
2023-03-05T04:12:43.463Z,20.95
2023-03-05T04:15:10.589Z,20.63
2023-03-05T04:17:37.395Z,19.70
2023-03-05T04:20:05.872Z,18.77
2023-03-05T04:22:32.468Z,19.23
2023-03-05T04:24:59.478Z,19.25
2023-03-05T04:27:26.127Z,18.20
2023-03-05T04:29:52.773Z,17.95
2023-03-05T04:32:23.118Z,20.75
2023-03-05T04:34:49.902Z,21.15
2023-03-05T04:37:16.876Z,19.65
2023-03-05T04:39:43.714Z,16.27
2023-03-05T04:42:10.484Z,18.02
2023-03-05T04:44:37.113Z,17.33
2023-03-05T04:47:03.884Z,19.25
2023-03-05T04:49:30.526Z,16.35
2023-03-05T04:51:57.617Z,18.75
2023-03-05T04:54:24.733Z,20.52
2023-03-05T04:56:51.357Z,18.38
2023-03-05T04:59:18.002Z,20.42
2023-03-05T05:01:44.712Z,19.48
2023-03-05T05:04:11.355Z,19.02
2023-03-05T05:06:38.028Z,16.90
2023-03-05T05:09:04.623Z,17.48
2023-03-05T05:11:31.216Z,21.35
2023-03-05T05:13:57.928Z,20.85
2023-03-05T05:16:24.663Z,17.75
2023-03-05T05:18:51.323Z,19.38
2023-03-05T05:21:20.313Z,18.45
2023-03-05T05:23:47.072Z,19.70
2023-03-05T05:26:14.319Z,20.50
2023-03-05T05:28:43.435Z,18.80
2023-03-05T05:31:12.588Z,17.75
2023-03-05T05:33:39.322Z,19.13
2023-03-05T05:36:06.926Z,18.80
2023-03-05T05:38:33.587Z,19.23
2023-03-05T05:41:05.268Z,20.60
2023-03-05T05:43:31.979Z,16.55
2023-03-05T05:46:02.234Z,19.40
2023-03-05T05:48:30.093Z,18.33
2023-03-05T05:50:56.751Z,18.98
2023-03-05T05:53:23.362Z,19.17
2023-03-05T05:55:50.058Z,20.77
2023-03-05T05:58:16.685Z,20.73
2023-03-05T06:00:43.474Z,20.40
2023-03-05T06:03:10.185Z,20.25
2023-03-05T06:05:36.866Z,19.48
2023-03-05T06:08:03.603Z,19.73
2023-03-05T06:10:30.213Z,19.23
2023-03-05T06:12:56.845Z,19.17
2023-03-05T06:15:23.447Z,19.00
2023-03-05T06:17:50.140Z,18.95
2023-03-05T06:20:16.979Z,20.20
2023-03-05T06:22:43.552Z,21.38
2023-03-05T06:25:11.412Z,19.70
2023-03-05T06:27:38.042Z,20.35
2023-03-05T06:30:05.675Z,19.58
2023-03-05T06:32:32.423Z,17.98
2023-03-05T06:34:59.056Z,20.75
2023-03-05T06:37:25.647Z,19.30
2023-03-05T06:39:52.210Z,20.40
2023-03-05T06:42:19.347Z,20.90
2023-03-05T06:44:48.288Z,18.63
2023-03-05T06:47:15.274Z,20.00
2023-03-05T06:49:41.942Z,19.30
2023-03-05T06:52:10.191Z,18.75
2023-03-05T06:54:36.962Z,17.90
2023-03-05T06:57:03.602Z,18.75
2023-03-05T06:59:30.235Z,18.85
2023-03-05T07:01:56.833Z,20.77
2023-03-05T07:04:24.335Z,18.25
2023-03-05T07:06:51.172Z,19.88
2023-03-05T07:09:17.793Z,17.73
2023-03-05T07:11:44.388Z,18.77
2023-03-05T07:14:11.037Z,17.83
2023-03-05T07:16:37.713Z,18.05
2023-03-05T07:19:05.094Z,19.08
2023-03-05T07:21:32.749Z,19.00
2023-03-05T07:24:00.945Z,19.80
2023-03-05T07:26:27.820Z,18.50
2023-03-05T07:28:54.690Z,19.60
2023-03-05T07:31:23.732Z,18.35
2023-03-05T07:33:50.556Z,19.92
2023-03-05T07:36:17.241Z,18.00
2023-03-05T07:38:43.884Z,18.45
2023-03-05T07:41:12.475Z,17.08
2023-03-05T07:43:39.289Z,18.05
2023-03-05T07:46:07.387Z,19.00
2023-03-05T07:48:34.117Z,18.42
2023-03-05T07:51:10.434Z,17.08
2023-03-05T07:53:37.095Z,17.33
2023-03-05T07:56:04.077Z,17.50
2023-03-05T07:58:30.731Z,19.55
2023-03-05T08:00:57.489Z,18.13
2023-03-05T08:03:24.153Z,16.48
2023-03-05T08:05:50.803Z,16.55
2023-03-05T08:08:17.654Z,19.25
2023-03-05T08:10:44.313Z,18.58
2023-03-05T08:13:11.003Z,17.80
2023-03-05T08:15:38.084Z,17.25
2023-03-05T08:18:04.908Z,19.98
2023-03-05T08:20:31.583Z,18.50
2023-03-05T08:22:58.232Z,17.00
2023-03-05T08:25:24.886Z,18.25
2023-03-05T08:27:51.638Z,16.83
2023-03-05T08:30:19.927Z,18.63
2023-03-05T08:32:46.588Z,17.42
2023-03-05T08:35:13.267Z,19.63
2023-03-05T08:37:39.946Z,18.63
2023-03-05T08:40:07.161Z,18.90
2023-03-05T08:42:33.774Z,18.85
2023-03-05T08:45:00.375Z,20.00
2023-03-05T08:47:27.349Z,16.70
2023-03-05T08:49:57.049Z,19.05
2023-03-05T08:52:23.667Z,19.75
2023-03-05T08:54:50.313Z,18.40
2023-03-05T08:57:16.979Z,18.30
2023-03-05T08:59:43.730Z,17.92
2023-03-05T09:02:12.470Z,18.10
2023-03-05T09:04:39.164Z,17.67
2023-03-05T09:07:06.031Z,17.13
2023-03-05T09:09:33.030Z,20.75
2023-03-05T09:12:00.550Z,18.08
2023-03-05T09:14:28.600Z,17.45
2023-03-05T09:16:56.122Z,18.45
2023-03-05T09:19:22.763Z,16.40
2023-03-05T09:21:49.397Z,19.83
2023-03-05T09:24:16.025Z,18.98
2023-03-05T09:26:42.747Z,17.02
2023-03-05T09:29:09.508Z,19.00
2023-03-05T09:31:37.826Z,17.30
2023-03-05T09:34:05.041Z,17.67
2023-03-05T09:36:32.139Z,18.30
2023-03-05T09:38:58.964Z,17.60
2023-03-05T09:42:05.492Z,19.70
2023-03-05T09:44:38.536Z,16.85
2023-03-05T09:52:55.316Z,17.85
2023-03-05T09:55:27.703Z,16.75
2023-03-05T09:57:56.598Z,16.75
2023-03-05T10:00:36.051Z,17.92
2023-03-05T10:03:06.666Z,20.90
2023-03-05T10:05:54.823Z,19.50
2023-03-05T10:08:22.769Z,19.08
2023-03-05T10:10:52.456Z,16.27
2023-03-05T10:13:38.249Z,18.58
2023-03-05T10:16:27.776Z,19.73
2023-03-05T10:19:00.653Z,17.17
2023-03-05T10:21:31.108Z,18.05
2023-03-05T10:24:25.762Z,17.52
2023-03-05T10:27:10.643Z,17.75
2023-03-05T10:30:01.694Z,16.90
2023-03-05T10:33:08.130Z,20.85
2023-03-05T10:35:50.657Z,17.90
2023-03-05T10:41:22.582Z,18.30
2023-03-05T10:43:56.264Z,18.80
2023-03-05T10:46:24.226Z,17.00
2023-03-05T10:48:55.662Z,18.45
2023-03-05T10:51:33.953Z,18.15
2023-03-05T10:54:29.811Z,20.23
2023-03-05T10:57:13.938Z,20.13
2023-03-05T10:59:44.463Z,18.45
2023-03-05T11:02:11.236Z,17.83
2023-03-05T11:04:38.965Z,22.17
2023-03-05T11:07:26.530Z,20.00
2023-03-05T11:12:37.870Z,19.05
2023-03-05T11:15:26.436Z,18.38
2023-03-05T11:18:06.898Z,18.70
2023-03-05T11:20:35.909Z,17.70
2023-03-05T11:23:10.734Z,19.10
2023-03-05T11:25:58.401Z,19.05
2023-03-05T11:31:23.489Z,19.50
2023-03-05T11:34:08.259Z,17.15
2023-03-05T11:36:40.373Z,18.25
2023-03-05T11:39:12.122Z,17.38
2023-03-05T11:41:41.405Z,14.32
2023-03-05T11:44:34.273Z,18.67
2023-03-05T11:49:32.931Z,18.52
2023-03-05T11:54:48.032Z,16.80
2023-03-05T11:57:15.195Z,16.95
2023-03-05T11:59:41.910Z,18.02
2023-03-05T12:02:19.705Z,16.90
2023-03-05T12:04:46.562Z,16.85
2023-03-05T12:07:15.165Z,19.52
2023-03-05T12:09:43.311Z,16.70
2023-03-05T12:12:38.693Z,16.33
2023-03-05T12:15:46.328Z,22.08
2023-03-05T12:18:36.315Z,17.00
2023-03-05T12:21:32.856Z,16.95
2023-03-05T12:24:01.767Z,12.65
2023-03-05T12:27:06.138Z,14.20
2023-03-05T12:32:31.764Z,14.77
2023-03-05T12:35:23.352Z,12.68
2023-03-05T12:40:32.043Z,15.35
2023-03-05T12:43:00.583Z,12.35
2023-03-05T12:45:43.711Z,14.25
2023-03-05T12:50:52.685Z,15.98
2023-03-05T12:53:20.548Z,13.90
2023-03-05T12:56:16.888Z,15.50
2023-03-05T12:58:45.374Z,13.43
2023-03-05T13:01:34.689Z,14.52
2023-03-05T13:04:10.503Z,13.23
2023-03-05T13:06:38.298Z,15.25
2023-03-05T13:09:08.739Z,12.93
2023-03-05T13:11:37.743Z,13.10
2023-03-05T13:14:04.371Z,14.40
2023-03-05T13:16:37.614Z,13.13
2023-03-05T13:19:04.415Z,14.40
2023-03-05T13:21:32.594Z,10.98
2023-03-05T13:24:01.034Z,11.50
2023-03-05T13:26:29.122Z,11.55
2023-03-05T13:31:44.139Z,12.55
2023-03-05T13:34:24.582Z,12.35
2023-03-05T13:36:56.301Z,11.10
2023-03-05T13:39:27.454Z,11.10
2023-03-05T13:42:16.745Z,11.65
2023-03-05T13:44:43.597Z,13.48
2023-03-05T13:47:17.982Z,10.65
2023-03-05T13:49:45.490Z,12.00
2023-03-05T13:52:15.877Z,11.60
2023-03-05T13:54:42.600Z,10.93
2023-03-05T13:57:33.744Z,11.13
2023-03-05T14:00:01.098Z,11.20
2023-03-05T14:02:27.877Z,11.05
2023-03-05T14:04:54.639Z,11.90
2023-03-05T14:09:59.877Z,11.52
2023-03-05T14:12:43.936Z,10.40
2023-03-05T14:15:23.152Z,12.70
2023-03-05T14:17:50.050Z,12.00
2023-03-05T14:20:32.750Z,11.82
2023-03-05T14:25:29.707Z,10.27
2023-03-05T14:27:57.090Z,12.73
2023-03-05T14:30:24.307Z,12.00
2023-03-05T14:32:52.437Z,16.00
2023-03-05T14:35:22.310Z,13.35
2023-03-05T14:37:50.243Z,11.98
2023-03-05T14:40:20.697Z,11.82
2023-03-05T14:43:04.089Z,12.73
2023-03-05T14:45:33.332Z,12.10
2023-03-05T14:48:01.210Z,12.45
2023-03-05T14:50:29.945Z,13.18
2023-03-05T14:52:59.145Z,11.45
2023-03-05T14:55:30.260Z,11.27
2023-03-05T14:58:03.056Z,12.63
2023-03-05T15:00:29.980Z,14.52
2023-03-05T15:02:58.002Z,12.65
2023-03-05T15:05:24.908Z,12.55
2023-03-05T15:07:53.818Z,14.40
2023-03-05T15:10:22.720Z,14.38
2023-03-05T15:12:50.505Z,13.50
2023-03-05T15:15:17.810Z,14.02
2023-03-05T15:17:47.552Z,14.50
2023-03-05T15:20:17.676Z,14.25
2023-03-05T15:22:44.407Z,14.10
2023-03-05T15:25:11.422Z,15.43
2023-03-05T15:27:39.198Z,15.13
2023-03-05T15:30:07.102Z,15.23
2023-03-05T15:32:33.840Z,14.02
2023-03-05T15:35:00.804Z,14.73
2023-03-05T15:37:27.844Z,14.50
2023-03-05T15:39:54.500Z,15.10
2023-03-05T15:42:21.196Z,15.30
2023-03-05T15:44:48.096Z,15.02
2023-03-05T15:47:14.930Z,13.30
2023-03-05T15:49:41.712Z,14.05
2023-03-05T15:52:08.425Z,14.52
2023-03-05T15:54:36.308Z,14.88
2023-03-05T15:57:03.465Z,15.40
2023-03-05T15:59:30.489Z,12.98
2023-03-05T16:01:57.349Z,11.95
2023-03-05T16:04:24.140Z,13.38
2023-03-05T16:06:50.929Z,11.73
2023-03-05T16:09:18.286Z,13.30
2023-03-05T16:11:47.944Z,10.73
2023-03-05T16:14:17.335Z,10.02
2023-03-05T16:16:44.300Z,9.65
2023-03-05T16:19:14.146Z,11.63
2023-03-05T16:21:41.145Z,9.38
2023-03-05T16:24:08.081Z,9.85
2023-03-05T16:26:36.495Z,9.02
2023-03-05T16:29:04.241Z,8.48
2023-03-05T16:31:34.368Z,9.07
2023-03-05T16:34:01.686Z,8.48
2023-03-05T16:36:30.470Z,8.30
2023-03-05T16:38:58.804Z,8.73
2023-03-05T16:41:29.334Z,9.65
2023-03-05T16:43:56.551Z,9.13
2023-03-05T16:46:25.922Z,7.57
2023-03-05T16:48:52.734Z,9.40
2023-03-05T16:51:20.795Z,9.55
2023-03-05T16:53:47.884Z,10.88
2023-03-05T16:56:15.045Z,9.10
2023-03-05T16:58:45.067Z,9.82
2023-03-05T17:01:14.757Z,8.80
2023-03-05T17:03:43.412Z,9.05
2023-03-05T17:06:12.774Z,7.30
2023-03-05T17:08:40.359Z,9.50
2023-03-05T17:11:07.120Z,8.30
2023-03-05T17:13:33.875Z,9.02
2023-03-05T17:16:00.646Z,8.52
2023-03-05T17:18:27.578Z,8.80
2023-03-05T17:20:54.321Z,9.82
2023-03-05T17:23:21.207Z,10.05
2023-03-05T17:25:47.820Z,8.60
2023-03-05T17:28:14.548Z,8.73
2023-03-05T17:30:41.179Z,9.55
2023-03-05T17:33:07.847Z,9.65
2023-03-05T17:35:35.404Z,8.52
2023-03-05T17:38:03.737Z,8.85
2023-03-05T17:40:32.257Z,9.50
2023-03-05T17:42:58.952Z,10.57
2023-03-05T17:45:25.798Z,9.20
2023-03-05T17:47:53.252Z,8.82
2023-03-05T17:50:20.041Z,8.15
2023-03-05T17:52:46.688Z,7.65
2023-03-05T17:55:14.886Z,9.32
2023-03-05T17:57:42.444Z,9.25
2023-03-05T18:00:16.401Z,9.93
2023-03-05T18:02:43.037Z,9.57
2023-03-05T18:05:10.168Z,9.48
2023-03-05T18:07:37.059Z,9.15
2023-03-05T18:10:04.666Z,10.02
2023-03-05T18:12:31.330Z,9.10
2023-03-05T18:14:58.105Z,9.57
2023-03-05T18:17:24.853Z,9.23
2023-03-05T18:19:51.742Z,9.15
2023-03-05T18:22:18.459Z,8.30
2023-03-05T18:24:45.153Z,8.52
2023-03-05T18:27:12.083Z,8.02
2023-03-05T18:29:38.747Z,7.97
2023-03-05T18:32:05.852Z,9.57
2023-03-05T18:34:32.553Z,9.02
2023-03-05T18:37:00.724Z,8.30
2023-03-05T18:39:33.451Z,7.18
2023-03-05T18:42:00.359Z,8.85
2023-03-05T18:44:26.995Z,8.23
2023-03-05T18:46:53.712Z,8.80
2023-03-05T18:49:20.493Z,8.85
2023-03-05T18:51:47.140Z,8.93
2023-03-05T18:54:13.892Z,8.52
2023-03-05T18:56:40.517Z,9.32
2023-03-05T18:59:07.168Z,7.85
2023-03-05T19:01:33.796Z,10.02
2023-03-05T19:04:00.455Z,9.20
2023-03-05T19:06:27.151Z,8.45
2023-03-05T19:09:00.785Z,8.57
2023-03-05T19:11:27.438Z,9.05
2023-03-05T19:13:54.090Z,9.25
2023-03-05T19:16:23.970Z,11.70
2023-03-05T19:19:17.639Z,9.02
2023-03-05T19:21:46.214Z,9.85
2023-03-05T19:24:13.013Z,9.65
2023-03-05T19:26:39.876Z,8.70
2023-03-05T19:29:06.703Z,9.05
2023-03-05T19:31:33.578Z,10.90
2023-03-05T19:34:01.130Z,9.00
2023-03-05T19:36:27.778Z,10.20
2023-03-05T19:38:54.708Z,7.85
2023-03-05T19:41:21.698Z,8.48
2023-03-05T19:43:49.821Z,10.00
2023-03-05T19:46:17.399Z,8.45
2023-03-05T19:48:44.238Z,8.27
2023-03-05T19:51:13.014Z,8.93
2023-03-05T19:53:40.522Z,8.07
2023-03-05T19:56:09.714Z,7.63
2023-03-05T19:58:36.422Z,8.73
2023-03-05T20:01:12.887Z,7.68
2023-03-05T20:03:44.587Z,7.80
2023-03-05T20:06:11.724Z,9.98
2023-03-05T20:08:38.517Z,9.73
2023-03-05T20:11:05.578Z,9.13
2023-03-05T20:13:32.501Z,9.85
2023-03-05T20:16:00.246Z,9.60
2023-03-05T20:18:26.910Z,9.43
2023-03-05T20:20:55.312Z,10.60
2023-03-05T20:23:24.371Z,9.05
2023-03-05T20:25:51.926Z,9.27
2023-03-05T20:28:25.626Z,9.55
2023-03-05T20:30:55.067Z,10.05
2023-03-05T20:33:21.852Z,11.15
2023-03-05T20:35:48.867Z,11.65
2023-03-05T20:38:21.014Z,10.55
2023-03-05T20:40:48.804Z,10.93
2023-03-05T20:43:15.769Z,10.85
2023-03-05T20:45:42.495Z,10.23
2023-03-05T20:48:09.120Z,11.82
2023-03-05T20:50:35.828Z,11.18
2023-03-05T20:53:03.872Z,10.43
2023-03-05T20:55:30.970Z,11.10
2023-03-05T20:57:57.738Z,13.30
2023-03-05T21:00:24.506Z,13.15
2023-03-05T21:02:51.582Z,11.75
2023-03-05T21:05:20.033Z,11.98
2023-03-05T21:07:46.791Z,12.18
2023-03-05T21:10:14.137Z,12.73
2023-03-05T21:12:40.713Z,11.73
2023-03-05T21:15:11.029Z,13.90
2023-03-05T21:17:37.695Z,11.98
2023-03-05T21:20:06.116Z,45.67
2023-03-05T21:22:33.111Z,14.98
2023-03-05T21:25:21.276Z,11.07
2023-03-05T21:27:57.923Z,12.20
2023-03-05T21:30:31.448Z,11.55
2023-03-05T21:33:00.164Z,12.75
2023-03-05T21:35:27.005Z,13.43
2023-03-05T21:37:53.676Z,13.10
2023-03-05T21:40:20.798Z,13.45
2023-03-05T21:42:47.868Z,12.60
2023-03-05T21:45:18.972Z,14.13
2023-03-05T21:47:45.833Z,13.80
2023-03-05T21:50:13.084Z,13.23
2023-03-05T21:52:39.701Z,15.13
2023-03-05T21:55:06.495Z,17.38
2023-03-05T21:57:33.169Z,14.13
2023-03-05T21:59:59.784Z,13.48
2023-03-05T22:02:26.356Z,14.32
2023-03-05T22:04:52.962Z,13.23
2023-03-05T22:07:19.583Z,15.15
2023-03-05T22:09:46.275Z,15.82
2023-03-05T22:12:30.170Z,14.02
2023-03-05T22:14:56.735Z,13.05
2023-03-05T22:17:23.348Z,14.93
2023-03-05T22:19:49.984Z,14.85
2023-03-05T22:22:16.567Z,12.52
2023-03-05T22:24:43.161Z,14.93
2023-03-05T22:27:10.002Z,12.90
2023-03-05T22:29:36.599Z,12.93
2023-03-05T22:32:03.263Z,11.60
2023-03-05T22:34:29.894Z,12.30
2023-03-05T22:36:56.626Z,11.27
2023-03-05T22:39:23.275Z,11.38
2023-03-05T22:41:49.900Z,10.45
2023-03-05T22:44:16.825Z,11.63
2023-03-05T22:46:44.361Z,11.05
2023-03-05T22:49:10.978Z,11.68
2023-03-05T22:51:37.601Z,11.32
2023-03-05T22:54:04.296Z,9.07
2023-03-05T22:56:30.938Z,10.52
2023-03-05T22:58:57.970Z,11.43
2023-03-05T23:01:25.202Z,9.85
2023-03-05T23:04:40.505Z,11.35
2023-03-05T23:07:07.119Z,11.15
2023-03-05T23:09:33.752Z,10.27
2023-03-05T23:12:00.423Z,9.38
2023-03-05T23:14:27.111Z,11.05
2023-03-05T23:16:53.747Z,10.02
2023-03-05T23:19:20.337Z,11.35
2023-03-05T23:21:47.205Z,11.10
2023-03-05T23:24:13.997Z,10.50
2023-03-05T23:26:40.612Z,10.48
2023-03-05T23:29:07.380Z,11.05
2023-03-05T23:31:35.264Z,9.75
2023-03-05T23:34:01.871Z,13.07
2023-03-05T23:36:28.600Z,9.57
2023-03-05T23:38:58.031Z,9.32
2023-03-05T23:41:24.645Z,10.15
2023-03-05T23:43:51.234Z,10.75
2023-03-05T23:46:17.871Z,10.20
2023-03-05T23:48:44.617Z,11.45
2023-03-05T23:51:11.289Z,11.50
2023-03-05T23:53:37.940Z,9.98
2023-03-05T23:56:09.945Z,9.70
2023-03-05T23:58:37.217Z,11.35
